Terminal Aerodrome Forecast
Issued by NWS

Home | Current Version | Previous Version | Text Only | Print | Product List | Glossary On
Versions: 1 2 3 4 5 6 7 8 9 10 11 12 13 14 15 16 17 18 19 20 21 22
000
FTUS45 KABQ 241305 AAA
TAFGUP
TAF AMD
KGUP 241305Z 2413/2512 24020G30KT P6SM VCSH SCT025 OVC040
      TEMPO 2419/2423 6SM -SHRASN OVC035
     FM250000 24013KT P6SM BKN040
     FM250600 23010KT P6SM VCFG SCT005 OVC035=

USA.gov is the U.S. government's official web portal to all federal, state and local government web resources and services.